createdAt,value
2018-05-13T00:00:24.727Z,31.90
2018-05-13T00:02:50.903Z,30.52
2018-05-13T00:05:17.058Z,29.25
2018-05-13T00:07:43.781Z,30.70
2018-05-13T00:10:10.628Z,29.20
2018-05-13T00:12:37.513Z,28.87
2018-05-13T00:15:03.578Z,26.43
2018-05-13T00:17:29.882Z,29.20
2018-05-13T00:19:56.673Z,35.90
2018-05-13T00:22:23.669Z,31.47
2018-05-13T00:24:49.746Z,31.60
2018-05-13T00:27:15.784Z,37.97
2018-05-13T00:29:41.888Z,28.00
2018-05-13T00:32:08.711Z,26.43
2018-05-13T00:34:34.799Z,32.27
2018-05-13T00:37:01.589Z,32.40
2018-05-13T00:39:27.707Z,32.80
2018-05-13T00:41:53.697Z,30.40
2018-05-13T00:44:19.810Z,37.23
2018-05-13T00:46:45.830Z,32.20
2018-05-13T00:49:11.893Z,30.60
2018-05-13T00:51:37.933Z,39.13
2018-05-13T00:54:16.301Z,30.97
2018-05-13T00:56:43.106Z,28.47
2018-05-13T00:59:09.181Z,27.90
2018-05-13T01:01:35.980Z,33.63
2018-05-13T01:04:02.159Z,33.13
2018-05-13T01:06:28.246Z,31.77
2018-05-13T01:08:54.267Z,31.47
2018-05-13T01:11:21.078Z,26.00
2018-05-13T01:13:47.325Z,31.97
2018-05-13T01:16:13.421Z,33.60
2018-05-13T01:18:39.477Z,30.13
2018-05-13T01:21:05.549Z,33.07
2018-05-13T01:23:31.618Z,31.57
2018-05-13T01:25:58.444Z,29.07
2018-05-13T01:28:24.467Z,33.87
2018-05-13T01:30:50.508Z,30.07
2018-05-13T01:33:16.545Z,33.77
2018-05-13T01:35:42.617Z,27.23
2018-05-13T01:38:09.610Z,25.10
2018-05-13T01:40:35.684Z,29.23
2018-05-13T01:43:01.767Z,30.60
2018-05-13T01:45:27.874Z,34.03
2018-05-13T01:47:53.960Z,35.37
2018-05-13T01:50:20.010Z,36.40
2018-05-13T01:52:46.044Z,26.13
2018-05-13T01:55:12.181Z,27.37
2018-05-13T01:57:38.212Z,31.80
2018-05-13T02:00:04.230Z,27.47
2018-05-13T02:02:31.236Z,30.37
2018-05-13T02:04:57.317Z,37.00
2018-05-13T02:07:23.373Z,32.10
2018-05-13T02:09:49.401Z,31.10
2018-05-13T02:12:15.429Z,28.70
2018-05-13T02:14:42.389Z,35.60
2018-05-13T02:17:09.180Z,31.93
2018-05-13T02:19:35.225Z,26.50
2018-05-13T02:22:01.298Z,25.77
2018-05-13T02:24:27.369Z,27.27
2018-05-13T02:26:53.439Z,30.87
2018-05-13T02:29:19.461Z,24.03
2018-05-13T02:31:45.503Z,27.63
2018-05-13T02:34:11.564Z,28.67
2018-05-13T02:36:37.590Z,29.43
2018-05-13T02:39:03.642Z,26.27
2018-05-13T02:41:29.698Z,27.40
2018-05-13T02:43:56.506Z,25.60
2018-05-13T02:46:22.559Z,26.33
2018-05-13T02:48:48.717Z,28.00
2018-05-13T02:51:14.761Z,28.57
2018-05-13T02:53:41.006Z,26.60
2018-05-13T02:56:07.043Z,29.80
2018-05-13T02:58:33.061Z,27.60
2018-05-13T03:00:59.118Z,27.00
2018-05-13T03:03:25.165Z,24.60
2018-05-13T03:05:51.951Z,24.90
2018-05-13T03:08:17.978Z,27.97
2018-05-13T03:10:44.030Z,25.00
2018-05-13T03:13:10.126Z,28.50
2018-05-13T03:15:36.973Z,28.53
2018-05-13T03:18:03.176Z,24.73
2018-05-13T03:20:29.225Z,29.30
2018-05-13T03:23:00.211Z,25.10
2018-05-13T03:25:27.510Z,26.50
2018-05-13T03:27:53.577Z,28.57
2018-05-13T03:30:19.619Z,30.27
2018-05-13T03:32:45.689Z,26.03
2018-05-13T03:35:11.763Z,27.93
2018-05-13T03:37:37.929Z,28.47
2018-05-13T03:40:03.958Z,27.73
2018-05-13T03:42:30.339Z,29.87
2018-05-13T03:44:56.478Z,30.40
2018-05-13T03:47:22.482Z,32.27
2018-05-13T03:49:48.540Z,29.93
2018-05-13T03:52:14.678Z,25.63
2018-05-13T03:54:40.768Z,27.83
2018-05-13T03:57:06.833Z,27.13
2018-05-13T03:59:32.897Z,25.17
2018-05-13T04:01:58.937Z,32.13
2018-05-13T04:04:24.976Z,28.43
2018-05-13T04:06:51.147Z,28.83
2018-05-13T04:09:30.256Z,25.10
2018-05-13T04:12:09.392Z,30.20
2018-05-13T04:14:47.757Z,29.33
2018-05-13T04:17:13.808Z,25.20
2018-05-13T04:19:39.853Z,26.23
2018-05-13T04:22:05.929Z,28.20
2018-05-13T04:24:31.955Z,25.67
2018-05-13T04:26:58.019Z,26.17
2018-05-13T04:29:24.043Z,25.20
2018-05-13T04:31:50.853Z,28.40
2018-05-13T04:34:16.927Z,24.43
2018-05-13T04:36:42.958Z,24.07
2018-05-13T04:39:09.033Z,28.50
2018-05-13T04:41:35.080Z,26.63
2018-05-13T04:44:01.872Z,23.67
2018-05-13T04:46:27.917Z,26.60
2018-05-13T04:48:54.011Z,27.40
2018-05-13T04:51:20.794Z,26.00
2018-05-13T04:53:46.798Z,26.30
2018-05-13T04:56:13.610Z,26.67
2018-05-13T04:58:39.646Z,24.12
2018-05-13T05:01:05.717Z,23.80
2018-05-13T05:03:31.797Z,23.90
2018-05-13T05:05:58.583Z,26.98
2018-05-13T05:08:24.637Z,27.37
2018-05-13T05:10:50.732Z,26.23
2018-05-13T05:13:16.770Z,25.50
2018-05-13T05:15:42.833Z,28.38
2018-05-13T05:18:08.877Z,26.05
2018-05-13T05:20:36.456Z,26.30
2018-05-13T05:23:02.585Z,27.25
2018-05-13T05:25:28.684Z,28.23
2018-05-13T05:27:54.821Z,24.92
2018-05-13T05:30:20.787Z,23.77
2018-05-13T05:32:46.844Z,24.27
2018-05-13T05:35:14.461Z,25.08
2018-05-13T05:37:40.576Z,24.50
2018-05-13T05:40:06.656Z,23.65
2018-05-13T05:42:32.693Z,23.37
2018-05-13T06:19:03.182Z,26.33
2018-05-13T06:21:29.265Z,20.80
2018-05-13T06:23:55.418Z,21.90
2018-05-13T06:26:21.442Z,24.03
2018-05-13T06:28:48.238Z,19.90
2018-05-13T06:31:14.317Z,26.07
2018-05-13T06:33:41.395Z,23.90
2018-05-13T06:36:08.153Z,21.47
2018-05-13T06:38:34.228Z,20.33
2018-05-13T06:41:00.269Z,22.70
2018-05-13T06:43:26.330Z,23.60
2018-05-13T06:45:52.402Z,24.43
2018-05-13T06:48:18.473Z,20.77
2018-05-13T06:50:44.554Z,26.13
2018-05-13T06:53:11.373Z,21.10
2018-05-13T06:55:37.435Z,21.33
2018-05-13T06:58:03.475Z,22.13
2018-05-13T07:00:29.543Z,24.20
2018-05-13T07:02:55.793Z,25.70
2018-05-13T07:05:21.843Z,20.93
2018-05-13T07:07:48.007Z,23.58
2018-05-13T07:10:14.115Z,26.95
2018-05-13T07:12:40.195Z,23.55
2018-05-13T07:15:06.271Z,24.08
2018-05-13T07:17:33.038Z,22.45
2018-05-13T07:19:59.145Z,23.87
2018-05-13T07:22:25.180Z,23.27
2018-05-13T07:24:51.232Z,22.30
2018-05-13T07:27:18.030Z,19.33
2018-05-13T07:29:44.145Z,33.33
2018-05-13T07:32:10.650Z,21.83
2018-05-13T07:34:36.747Z,21.80
2018-05-13T07:41:54.989Z,22.33
2018-05-13T07:44:21.033Z,25.23
2018-05-13T07:46:47.137Z,23.60
2018-05-13T07:49:13.482Z,20.20
2018-05-13T07:51:39.537Z,20.73
2018-05-13T07:54:05.631Z,21.60
2018-05-13T07:56:31.669Z,20.67
2018-05-13T07:58:58.475Z,20.40
2018-05-13T08:01:25.282Z,22.90
2018-05-13T08:03:51.349Z,22.53
2018-05-13T08:06:17.445Z,24.13
2018-05-13T08:08:43.503Z,19.40
2018-05-13T08:11:09.589Z,27.90
2018-05-13T08:13:35.639Z,23.12
2018-05-13T08:16:01.665Z,21.95
2018-05-13T08:18:27.714Z,21.02
2018-05-13T08:20:53.790Z,19.17
2018-05-13T08:23:19.922Z,22.23
2018-05-13T08:25:46.029Z,22.58
2018-05-13T08:28:12.483Z,17.75
2018-05-13T08:30:39.557Z,20.67
2018-05-13T08:33:05.608Z,22.23
2018-05-13T08:35:31.664Z,19.27
2018-05-13T08:37:57.712Z,20.20
2018-05-13T08:40:23.754Z,24.42
2018-05-13T08:42:49.841Z,19.13
2018-05-13T08:45:17.051Z,16.87
2018-05-13T08:47:43.160Z,19.20
2018-05-13T08:50:09.599Z,21.45
2018-05-13T08:52:36.441Z,24.17
2018-05-13T08:55:03.376Z,18.08
2018-05-13T08:57:29.671Z,19.50
2018-05-13T08:59:55.714Z,19.23
2018-05-13T09:02:21.759Z,17.95
2018-05-13T09:04:47.804Z,20.10
2018-05-13T09:07:13.887Z,24.23
2018-05-13T09:09:39.910Z,17.20
2018-05-13T09:12:05.957Z,16.95
2018-05-13T09:14:32.015Z,15.10
2018-05-13T09:16:58.806Z,17.83
2018-05-13T09:19:24.830Z,17.63
2018-05-13T09:21:51.229Z,16.12
2018-05-13T09:24:17.287Z,14.00
2018-05-13T09:26:44.146Z,12.88
2018-05-13T09:29:11.006Z,18.10
2018-05-13T09:31:37.787Z,14.43
2018-05-13T09:34:03.899Z,16.63
2018-05-13T09:36:29.940Z,15.30
2018-05-13T09:38:55.985Z,16.67
2018-05-13T09:41:22.012Z,18.07
2018-05-13T09:43:48.089Z,14.13
2018-05-13T09:46:14.184Z,18.30
2018-05-13T09:48:40.251Z,19.00
2018-05-13T09:51:06.304Z,16.67
2018-05-13T10:00:50.184Z,15.90
2018-05-13T10:03:16.209Z,13.30
2018-05-13T10:05:42.302Z,13.73
2018-05-13T10:08:08.421Z,13.40
2018-05-13T10:10:34.458Z,12.90
2018-05-13T10:13:00.510Z,13.30
2018-05-13T10:15:26.563Z,15.97
2018-05-13T10:17:52.610Z,12.07
2018-05-13T10:20:18.634Z,15.10
2018-05-13T10:22:45.027Z,17.63
2018-05-13T10:25:11.515Z,13.30
2018-05-13T10:27:37.575Z,17.53
2018-05-13T10:30:03.652Z,15.93
2018-05-13T10:32:30.435Z,12.47
2018-05-13T10:34:56.530Z,17.07
2018-05-13T10:37:22.586Z,13.57
2018-05-13T10:39:48.655Z,11.68
2018-05-13T10:42:14.886Z,12.40
2018-05-13T10:44:41.064Z,12.95
2018-05-13T10:47:07.100Z,16.00
2018-05-13T10:49:33.264Z,11.27
2018-05-13T10:52:00.054Z,19.23
2018-05-13T10:54:26.176Z,13.73
2018-05-13T10:56:52.984Z,13.07
2018-05-13T10:59:19.037Z,9.23
2018-05-13T11:01:45.157Z,17.08
2018-05-13T11:04:11.248Z,11.67
2018-05-13T11:09:04.079Z,12.93
2018-05-13T11:11:30.213Z,11.57
2018-05-13T11:13:56.300Z,10.67
2018-05-13T11:16:22.359Z,10.27
2018-05-13T11:18:49.160Z,8.60
2018-05-13T11:21:15.188Z,11.90
2018-05-13T11:23:41.317Z,8.47
2018-05-13T11:26:07.370Z,8.35
2018-05-13T11:28:33.502Z,9.98
2018-05-13T11:31:00.156Z,9.07
2018-05-13T11:33:26.208Z,12.10
2018-05-13T11:35:52.302Z,10.05
2018-05-13T11:38:18.354Z,8.45
2018-05-13T11:40:44.399Z,7.37
2018-05-13T11:43:10.495Z,10.88
2018-05-13T11:45:37.341Z,10.05
2018-05-13T11:48:03.389Z,13.65
2018-05-13T11:50:30.181Z,8.30
2018-05-13T11:52:56.288Z,8.07
2018-05-13T11:55:23.067Z,9.98
2018-05-13T11:57:49.113Z,7.55
2018-05-13T12:00:15.221Z,7.80
2018-05-13T12:02:42.042Z,10.55
2018-05-13T12:05:08.088Z,9.10
2018-05-13T12:07:34.152Z,8.25
2018-05-13T12:10:01.028Z,8.05
2018-05-13T12:12:27.076Z,6.87
2018-05-13T12:14:53.482Z,8.52
2018-05-13T12:17:20.246Z,8.05
2018-05-13T12:19:46.305Z,8.60
2018-05-13T12:22:12.531Z,5.90
2018-05-13T12:24:38.605Z,7.72
2018-05-13T12:27:04.667Z,7.53
2018-05-13T12:29:30.709Z,7.03
2018-05-13T12:31:56.750Z,7.40
2018-05-13T12:34:22.820Z,30.55
2018-05-13T12:36:48.915Z,73.80
2018-05-13T12:39:15.016Z,52.17
2018-05-13T12:41:41.147Z,32.20
2018-05-13T12:44:07.190Z,15.63
2018-05-13T12:46:34.047Z,9.88
2018-05-13T12:49:00.122Z,7.12
2018-05-13T12:51:26.197Z,7.68
2018-05-13T12:53:52.313Z,5.80
2018-05-13T12:56:18.518Z,8.23
2018-05-13T12:58:44.625Z,7.72
2018-05-13T13:01:10.694Z,5.15
2018-05-13T13:03:36.766Z,5.07
2018-05-13T13:06:02.813Z,5.12
2018-05-13T13:08:29.186Z,6.15
2018-05-13T13:10:55.253Z,5.30
2018-05-13T13:13:21.336Z,9.05
2018-05-13T13:15:48.192Z,8.68
2018-05-13T13:18:14.399Z,7.75
2018-05-13T13:20:40.509Z,5.30
2018-05-13T13:23:06.712Z,7.50
2018-05-13T13:25:34.066Z,10.07
2018-05-13T13:28:00.113Z,5.80
2018-05-13T13:30:26.960Z,13.10
2018-05-13T13:32:52.947Z,6.80
2018-05-13T13:35:18.990Z,8.02
2018-05-13T13:37:45.066Z,9.10
2018-05-13T13:40:11.293Z,6.57
2018-05-13T13:42:37.341Z,9.32
2018-05-13T13:45:03.444Z,6.00
2018-05-13T13:47:29.544Z,5.95
2018-05-13T13:49:56.411Z,9.23
2018-05-13T13:52:22.560Z,6.22
2018-05-13T13:54:48.583Z,19.92
2018-05-13T13:57:15.411Z,6.12
2018-05-13T13:59:41.527Z,5.90
2018-05-13T14:02:07.606Z,6.57
2018-05-13T14:04:34.407Z,5.70
2018-05-13T14:07:00.466Z,6.25
2018-05-13T14:09:26.513Z,5.57
2018-05-13T14:11:53.568Z,7.68
2018-05-13T14:14:19.626Z,5.70
2018-05-13T14:16:45.855Z,11.40
2018-05-13T14:19:11.958Z,8.73
2018-05-13T14:21:38.340Z,5.25
2018-05-13T14:24:04.439Z,5.75
2018-05-13T14:26:30.468Z,6.53
2018-05-13T14:28:56.527Z,5.53
2018-05-13T14:31:22.553Z,8.60
2018-05-13T14:33:48.611Z,5.35
2018-05-13T14:36:14.686Z,5.03
2018-05-13T14:38:40.838Z,5.78
2018-05-13T14:41:07.624Z,6.50
2018-05-13T14:43:33.678Z,7.18
2018-05-13T14:45:59.853Z,5.80
2018-05-13T14:48:26.644Z,6.40
2018-05-13T14:50:52.738Z,12.07
2018-05-13T14:53:18.824Z,8.63
2018-05-13T14:55:44.963Z,10.98
2018-05-13T14:58:11.212Z,10.45
2018-05-13T15:00:37.180Z,10.02
2018-05-13T15:03:03.249Z,17.58
2018-05-13T15:05:30.146Z,12.00
2018-05-13T15:07:57.299Z,14.63
2018-05-13T15:10:23.358Z,8.35
2018-05-13T15:12:49.380Z,7.25
2018-05-13T15:15:15.607Z,8.68
2018-05-13T15:17:41.650Z,6.05
2018-05-13T15:20:07.771Z,7.95
2018-05-13T15:22:33.945Z,9.40
2018-05-13T15:24:59.979Z,19.85
2018-05-13T15:27:26.035Z,10.23
2018-05-13T15:29:52.099Z,6.43
2018-05-13T15:32:18.318Z,10.80
2018-05-13T15:34:44.385Z,5.43
2018-05-13T15:37:10.496Z,7.07
2018-05-13T15:39:36.523Z,4.75
2018-05-13T15:42:02.605Z,7.15
2018-05-13T15:44:29.557Z,8.70
2018-05-13T15:46:56.398Z,7.87
2018-05-13T15:49:23.198Z,6.93
2018-05-13T15:51:49.295Z,7.12
2018-05-13T15:54:15.401Z,7.00
2018-05-13T15:56:41.573Z,4.85
2018-05-13T15:59:07.638Z,5.82
2018-05-13T16:01:33.724Z,7.78
2018-05-13T16:04:00.545Z,6.68
2018-05-13T16:06:26.651Z,4.47
2018-05-13T16:08:53.470Z,5.05
2018-05-13T16:11:19.536Z,12.52
2018-05-13T16:13:46.356Z,7.85
2018-05-13T16:16:12.691Z,5.72
2018-05-13T16:18:38.751Z,8.95
2018-05-13T16:21:04.847Z,11.65
2018-05-13T16:23:30.885Z,8.93
2018-05-13T16:25:57.060Z,13.07
2018-05-13T16:28:23.151Z,12.60
2018-05-13T16:30:49.221Z,6.53
2018-05-13T16:33:15.384Z,9.25
2018-05-13T16:35:41.483Z,9.20
2018-05-13T16:38:07.596Z,6.80
2018-05-13T16:40:33.634Z,7.97
2018-05-13T16:43:01.238Z,10.60
2018-05-13T16:45:27.356Z,7.30
2018-05-13T16:47:53.384Z,9.52
2018-05-13T16:50:19.473Z,10.65
2018-05-13T16:52:45.572Z,3.92
2018-05-13T16:55:11.940Z,5.07
2018-05-13T16:57:37.989Z,7.72
2018-05-13T17:00:04.785Z,12.70
2018-05-13T17:02:32.732Z,10.63
2018-05-13T17:04:58.696Z,12.10
2018-05-13T17:07:24.805Z,3.72
2018-05-13T17:09:50.864Z,10.80
2018-05-13T17:12:17.917Z,6.25
2018-05-13T17:14:44.251Z,17.02
2018-05-13T17:17:10.821Z,9.02
2018-05-13T17:19:37.021Z,10.80
2018-05-13T17:22:03.151Z,4.90
2018-05-13T17:24:29.221Z,5.35
2018-05-13T17:26:55.302Z,8.00
2018-05-13T17:29:22.127Z,6.77
2018-05-13T17:31:48.322Z,7.70
2018-05-13T17:34:21.261Z,14.45
2018-05-13T17:36:47.317Z,6.27
2018-05-13T17:39:13.459Z,8.37
2018-05-13T17:41:39.440Z,6.73
2018-05-13T17:44:05.504Z,11.00
2018-05-13T17:46:31.825Z,3.63
2018-05-13T17:48:57.890Z,12.67
2018-05-13T17:51:23.947Z,7.40
2018-05-13T17:53:50.056Z,7.77
2018-05-13T17:56:16.273Z,12.10
2018-05-13T17:58:42.410Z,9.10
2018-05-13T18:01:08.495Z,8.80
2018-05-13T18:03:34.556Z,7.20
2018-05-13T18:06:01.488Z,14.87
2018-05-13T18:08:28.229Z,8.03
2018-05-13T18:10:54.269Z,9.20
2018-05-13T18:13:20.379Z,10.10
2018-05-13T18:15:47.420Z,6.87
2018-05-13T18:18:13.466Z,10.57
2018-05-13T18:20:39.530Z,5.70
2018-05-13T18:23:05.703Z,11.27
2018-05-13T18:25:32.519Z,4.43
2018-05-13T18:27:58.567Z,6.53
2018-05-13T18:30:24.592Z,11.77
2018-05-13T18:32:50.712Z,7.53
2018-05-13T18:35:17.914Z,9.70
2018-05-13T18:37:44.074Z,8.23
2018-05-13T18:40:10.222Z,7.73
2018-05-13T18:42:37.121Z,11.30
2018-05-13T18:45:03.190Z,11.30
2018-05-13T18:47:30.749Z,9.53
2018-05-13T18:49:56.833Z,16.03
2018-05-13T18:52:23.649Z,7.05
2018-05-13T18:54:49.698Z,10.30
2018-05-13T18:57:16.049Z,7.72
2018-05-13T18:59:42.399Z,11.07
2018-05-13T19:02:09.219Z,9.70
2018-05-13T19:04:35.275Z,8.05
2018-05-13T19:07:01.382Z,7.12
2018-05-13T19:09:27.487Z,9.90
2018-05-13T19:11:54.321Z,7.78
2018-05-13T19:14:21.186Z,7.30
2018-05-13T19:16:47.571Z,11.35
2018-05-13T19:19:13.736Z,6.07
2018-05-13T19:21:39.818Z,10.52
2018-05-13T19:24:06.640Z,10.43
2018-05-13T19:26:32.709Z,11.10
2018-05-13T19:28:59.575Z,10.50
2018-05-13T19:31:26.381Z,7.05
2018-05-13T19:33:52.472Z,11.47
2018-05-13T19:36:18.699Z,6.90
2018-05-13T19:38:45.543Z,10.87
2018-05-13T19:41:12.356Z,7.43
2018-05-13T19:43:38.683Z,6.25
2018-05-13T19:46:04.755Z,10.68
2018-05-13T19:48:30.889Z,14.13
2018-05-13T19:50:57.057Z,7.80
2018-05-13T19:53:23.212Z,8.15
2018-05-13T19:55:49.997Z,6.78
2018-05-13T19:58:16.066Z,13.43
2018-05-13T20:00:42.171Z,7.47
2018-05-13T20:03:08.374Z,13.53
2018-05-13T20:05:34.330Z,11.60
2018-05-13T20:08:01.211Z,6.37
2018-05-13T20:10:27.333Z,9.97
2018-05-13T20:12:53.370Z,6.47
2018-05-13T20:15:19.514Z,8.63
2018-05-13T20:17:45.810Z,6.63
2018-05-13T20:20:11.884Z,6.90
2018-05-13T20:22:51.291Z,11.90
2018-05-13T20:25:17.294Z,7.47
2018-05-13T20:27:43.887Z,8.37
2018-05-13T20:30:11.045Z,7.80
2018-05-13T20:32:37.106Z,9.43
2018-05-13T20:35:03.149Z,16.10
2018-05-13T20:37:29.322Z,9.10
2018-05-13T20:39:55.394Z,8.13
2018-05-13T20:42:21.503Z,7.10
2018-05-13T20:44:47.573Z,8.77
2018-05-13T20:47:13.759Z,8.50
2018-05-13T20:49:40.561Z,8.30
2018-05-13T20:52:06.652Z,5.50
2018-05-13T20:54:33.494Z,12.60
2018-05-13T20:56:59.544Z,17.63
2018-05-13T20:59:26.382Z,5.80
2018-05-13T21:01:52.686Z,5.50
2018-05-13T21:04:18.732Z,4.43
2018-05-13T21:06:45.549Z,10.13
2018-05-13T21:09:11.661Z,8.10
2018-05-13T21:11:37.711Z,8.30
2018-05-13T21:14:03.757Z,10.30
2018-05-13T21:16:29.834Z,14.87
2018-05-13T21:18:55.906Z,8.73
2018-05-13T21:21:22.024Z,13.43
2018-05-13T21:23:48.820Z,12.10
2018-05-13T21:26:15.612Z,13.80
2018-05-13T21:28:41.749Z,5.60
2018-05-13T21:31:07.793Z,7.30
2018-05-13T21:33:33.822Z,8.97
2018-05-13T21:35:59.904Z,12.90
2018-05-13T21:38:25.920Z,5.23
2018-05-13T21:40:51.966Z,9.07
2018-05-13T21:43:18.038Z,11.77
2018-05-13T21:45:44.116Z,7.60
2018-05-13T21:48:10.377Z,8.57
2018-05-13T21:50:36.442Z,7.40
2018-05-13T21:53:03.315Z,6.83
2018-05-13T21:55:29.377Z,9.97
2018-05-13T21:57:55.535Z,11.57
2018-05-13T22:00:22.551Z,7.70
2018-05-13T22:02:48.632Z,10.53
2018-05-13T22:05:14.920Z,9.53
2018-05-13T22:07:46.179Z,7.03
2018-05-13T22:10:13.110Z,8.93
2018-05-13T22:12:39.152Z,6.33
2018-05-13T22:15:05.510Z,7.33
2018-05-13T22:17:31.557Z,8.60
2018-05-13T22:19:57.598Z,9.40
2018-05-13T22:22:23.652Z,8.40
2018-05-13T22:24:49.688Z,7.70
2018-05-13T22:27:15.732Z,9.53
2018-05-13T22:29:41.854Z,7.63
2018-05-13T22:32:07.917Z,7.40
2018-05-13T22:34:34.079Z,5.50
2018-05-13T22:37:00.201Z,8.83
2018-05-13T22:39:26.339Z,9.17
2018-05-13T22:41:52.404Z,9.30
2018-05-13T22:44:19.193Z,8.00
2018-05-13T22:46:45.318Z,5.00
2018-05-13T22:49:11.504Z,7.23
2018-05-13T22:51:37.571Z,8.13
2018-05-13T22:54:03.650Z,11.93
2018-05-13T22:56:29.703Z,8.03
2018-05-13T22:58:55.749Z,9.53
2018-05-13T23:01:21.806Z,10.03
2018-05-13T23:03:47.875Z,8.00
2018-05-13T23:06:13.922Z,8.67
2018-05-13T23:08:40.015Z,10.37
2018-05-13T23:11:06.072Z,7.50
2018-05-13T23:13:32.130Z,5.20
2018-05-13T23:15:58.203Z,18.20
2018-05-13T23:18:24.241Z,12.63
2018-05-13T23:20:50.302Z,13.50
2018-05-13T23:23:16.398Z,8.23
2018-05-13T23:25:42.520Z,9.37
2018-05-13T23:28:08.581Z,7.30
2018-05-13T23:30:35.368Z,13.63
2018-05-13T23:33:01.568Z,10.47
2018-05-13T23:35:28.432Z,12.27
2018-05-13T23:37:54.454Z,8.20
2018-05-13T23:40:21.634Z,12.57
2018-05-13T23:42:48.425Z,5.73
2018-05-13T23:45:14.502Z,9.80
2018-05-13T23:47:41.336Z,9.63
2018-05-13T23:50:07.539Z,6.10
2018-05-13T23:52:33.727Z,6.60
2018-05-13T23:54:59.770Z,12.60
2018-05-13T23:57:25.811Z,6.30
2018-05-13T23:59:51.889Z,5.40
